Terminal Aerodrome Forecast
Issued by NWS

Home | Current Version | Previous Version | Text Only | Print | Product List | Glossary On
Versions: 1 2 3 4 5 6 7 8 9 10 11 12 13 14 15 16 17 18 19
000
FTUS43 KJKL 011700
TAFSJS
TAF
KSJS 011729Z 0118/0218 VRB03KT P6SM FEW070
     FM021100 00000KT 4SM BR FEW001
     FM021300 20003KT P6SM FEW250=

USA.gov is the U.S. government's official web portal to all federal, state and local government web resources and services.